DLH101 EDDF-EBAW
Flight info
| Callsign | DLH101 |
|---|---|
| Flight time | 0h 41m |
| Altitude | 22000 |
| Route | SOBRA2L/18 SOBRA Y180 RUDOT DCT LNO DCT ULTAV DCT ERPUD |
| Aircraft | A20N/M-SDE2E3FGHIRWXY/LB1 |
Departure
| Time | 2026-04-15 10:31 |
|---|---|
| Airport | Frankfurt Main Airport (EDDF) |
Arrival
| Time | 2026-04-15 11:12 |
|---|---|
| Airport | Antwerp International Airport (Deurne) (EBAW) |
| Time | Latitude | Longitude | Altitude | Speed | Heading |
|---|---|---|---|---|---|
| 2026-04-15 09:46 | 50.04736 | 8.56737 | 360 ft | 0 kts | 115° |
| 2026-04-15 10:11 | 50.04745 | 8.56707 | 363 ft | 4 kts | 115° |
| 2026-04-15 10:11 | 50.04756 | 8.56671 | 362 ft | 4 kts | 139° |
| 2026-04-15 10:12 | 50.04769 | 8.56666 | 363 ft | 3 kts | 204° |
| 2026-04-15 10:12 | 50.04786 | 8.56678 | 360 ft | 0 kts | 204° |
| 2026-04-15 10:19 | 50.04778 | 8.56672 | 356 ft | 3 kts | 205° |
| 2026-04-15 10:19 | 50.04750 | 8.56641 | 360 ft | 7 kts | 225° |
| 2026-04-15 10:20 | 50.04706 | 8.56558 | 356 ft | 12 kts | 222° |
| 2026-04-15 10:20 | 50.04623 | 8.56492 | 361 ft | 15 kts | 204° |
| 2026-04-15 10:20 | 50.04529 | 8.56413 | 363 ft | 16 kts | 230° |
| 2026-04-15 10:20 | 50.04512 | 8.56361 | 363 ft | 0 kts | 250° |
| 2026-04-15 10:21 | 50.04509 | 8.56350 | 364 ft | 3 kts | 249° |
| 2026-04-15 10:21 | 50.04498 | 8.56305 | 362 ft | 6 kts | 249° |
| 2026-04-15 10:21 | 50.04479 | 8.56227 | 361 ft | 9 kts | 249° |
| 2026-04-15 10:22 | 50.04453 | 8.56119 | 358 ft | 12 kts | 250° |
| 2026-04-15 10:22 | 50.04395 | 8.56034 | 356 ft | 13 kts | 181° |
| 2026-04-15 10:22 | 50.04312 | 8.56079 | 363 ft | 12 kts | 143° |
| 2026-04-15 10:22 | 50.04282 | 8.56201 | 359 ft | 12 kts | 122° |
| 2026-04-15 10:23 | 50.04200 | 8.56264 | 355 ft | 15 kts | 160° |
| 2026-04-15 10:23 | 50.04170 | 8.56279 | 356 ft | 4 kts | 166° |
| 2026-04-15 10:23 | 50.04129 | 8.56260 | 352 ft | 8 kts | 221° |
| 2026-04-15 10:23 | 50.04099 | 8.56162 | 356 ft | 12 kts | 249° |
| 2026-04-15 10:24 | 50.04067 | 8.56027 | 359 ft | 15 kts | 250° |
| 2026-04-15 10:24 | 50.04027 | 8.55861 | 352 ft | 18 kts | 249° |
| 2026-04-15 10:24 | 50.03981 | 8.55666 | 355 ft | 21 kts | 249° |
| 2026-04-15 10:24 | 50.03929 | 8.55447 | 353 ft | 22 kts | 250° |
| 2026-04-15 10:25 | 50.03873 | 8.55213 | 356 ft | 24 kts | 250° |
| 2026-04-15 10:25 | 50.03815 | 8.54973 | 354 ft | 22 kts | 250° |
| 2026-04-15 10:25 | 50.03770 | 8.54783 | 348 ft | 17 kts | 249° |
| 2026-04-15 10:25 | 50.03725 | 8.54597 | 349 ft | 20 kts | 249° |
| 2026-04-15 10:26 | 50.03672 | 8.54375 | 347 ft | 23 kts | 250° |
| 2026-04-15 10:26 | 50.03614 | 8.54131 | 344 ft | 23 kts | 249° |
| 2026-04-15 10:26 | 50.03560 | 8.53905 | 339 ft | 23 kts | 250° |
| 2026-04-15 10:26 | 50.03500 | 8.53658 | 335 ft | 25 kts | 249° |
| 2026-04-15 10:27 | 50.03439 | 8.53399 | 337 ft | 22 kts | 249° |
| 2026-04-15 10:27 | 50.03384 | 8.53173 | 334 ft | 23 kts | 250° |
| 2026-04-15 10:27 | 50.03325 | 8.52924 | 333 ft | 26 kts | 249° |
| 2026-04-15 10:27 | 50.03283 | 8.52749 | 331 ft | 0 kts | 249° |
| 2026-04-15 10:28 | 50.03283 | 8.52748 | 331 ft | 1 kts | 249° |
| 2026-04-15 10:28 | 50.03276 | 8.52718 | 330 ft | 5 kts | 246° |
| 2026-04-15 10:29 | 50.03255 | 8.52668 | 332 ft | 6 kts | 231° |
| 2026-04-15 10:29 | 50.03215 | 8.52619 | 333 ft | 9 kts | 207° |
| 2026-04-15 10:29 | 50.03147 | 8.52597 | 334 ft | 11 kts | 181° |
| 2026-04-15 10:29 | 50.03090 | 8.52597 | 335 ft | 13 kts | 179° |
| 2026-04-15 10:30 | 50.02991 | 8.52598 | 334 ft | 15 kts | 180° |
| 2026-04-15 10:30 | 50.02876 | 8.52599 | 334 ft | 19 kts | 179° |
| 2026-04-15 10:30 | 50.02578 | 8.52602 | 333 ft | 76 kts | 179° |
| 2026-04-15 10:30 | 50.01524 | 8.52615 | 333 ft | 148 kts | 179° |
| 2026-04-15 10:31 | 50.00769 | 8.52628 | 418 ft | 167 kts | 178° |
| 2026-04-15 10:31 | 49.99607 | 8.52700 | 1024 ft | 168 kts | 175° |
| 2026-04-15 10:31 | 49.98444 | 8.52809 | 1684 ft | 171 kts | 174° |
| 2026-04-15 10:31 | 49.97261 | 8.52923 | 2322 ft | 171 kts | 174° |
| 2026-04-15 10:32 | 49.96062 | 8.53053 | 2939 ft | 178 kts | 174° |
| 2026-04-15 10:32 | 49.94756 | 8.53130 | 3411 ft | 198 kts | 176° |
| 2026-04-15 10:32 | 49.93314 | 8.53185 | 3900 ft | 216 kts | 176° |
| 2026-04-15 10:32 | 49.91748 | 8.53254 | 4462 ft | 230 kts | 176° |
| 2026-04-15 10:33 | 49.90147 | 8.53335 | 5415 ft | 229 kts | 176° |
| 2026-04-15 10:33 | 49.88552 | 8.53424 | 6387 ft | 230 kts | 179° |
| 2026-04-15 10:33 | 49.86940 | 8.53204 | 7185 ft | 237 kts | 192° |
| 2026-04-15 10:33 | 49.85358 | 8.52412 | 7969 ft | 243 kts | 200° |
| 2026-04-15 10:34 | 49.83703 | 8.51447 | 8432 ft | 265 kts | 200° |
| 2026-04-15 10:34 | 49.81924 | 8.50432 | 9079 ft | 277 kts | 200° |
| 2026-04-15 10:34 | 49.80090 | 8.49397 | 9912 ft | 282 kts | 200° |
| 2026-04-15 10:34 | 49.78277 | 8.48249 | 10655 ft | 290 kts | 211° |
| 2026-04-15 10:35 | 49.76723 | 8.46103 | 10911 ft | 313 kts | 234° |
| 2026-04-15 10:35 | 49.75795 | 8.42955 | 11194 ft | 333 kts | 258° |
| 2026-04-15 10:35 | 49.75761 | 8.39361 | 11898 ft | 338 kts | 281° |
| 2026-04-15 10:35 | 49.76403 | 8.35846 | 12742 ft | 340 kts | 288° |
| 2026-04-15 10:36 | 49.77156 | 8.32347 | 13508 ft | 345 kts | 288° |
| 2026-04-15 10:36 | 49.77874 | 8.28788 | 14282 ft | 348 kts | 286° |
| 2026-04-15 10:36 | 49.78534 | 8.25167 | 14946 ft | 352 kts | 285° |
| 2026-04-15 10:36 | 49.79151 | 8.21520 | 15611 ft | 356 kts | 284° |
| 2026-04-15 10:37 | 49.79758 | 8.17784 | 16251 ft | 361 kts | 284° |
| 2026-04-15 10:37 | 49.80361 | 8.13998 | 16948 ft | 363 kts | 284° |
| 2026-04-15 10:37 | 49.80966 | 8.10181 | 17597 ft | 368 kts | 284° |
| 2026-04-15 10:37 | 49.81579 | 8.06301 | 18166 ft | 373 kts | 284° |
| 2026-04-15 10:38 | 49.82198 | 8.02381 | 18798 ft | 376 kts | 284° |
| 2026-04-15 10:38 | 49.82821 | 7.98427 | 19397 ft | 379 kts | 284° |
| 2026-04-15 10:38 | 49.83450 | 7.94429 | 19928 ft | 383 kts | 284° |
| 2026-04-15 10:38 | 49.84080 | 7.90413 | 20525 ft | 385 kts | 284° |
| 2026-04-15 10:39 | 49.84714 | 7.86359 | 21052 ft | 389 kts | 284° |
| 2026-04-15 10:39 | 49.85356 | 7.82257 | 21585 ft | 393 kts | 284° |
| 2026-04-15 10:39 | 49.86000 | 7.78119 | 21888 ft | 396 kts | 284° |
| 2026-04-15 10:39 | 49.86650 | 7.73965 | 22005 ft | 396 kts | 284° |
| 2026-04-15 10:40 | 49.87295 | 7.69878 | 22104 ft | 394 kts | 284° |
| 2026-04-15 10:40 | 49.87936 | 7.65762 | 22205 ft | 392 kts | 284° |
| 2026-04-15 10:40 | 49.88577 | 7.61624 | 22233 ft | 396 kts | 284° |
| 2026-04-15 10:40 | 49.89213 | 7.57494 | 22235 ft | 392 kts | 284° |
| 2026-04-15 10:41 | 49.89846 | 7.53382 | 22234 ft | 394 kts | 284° |
| 2026-04-15 10:41 | 49.90484 | 7.49228 | 22232 ft | 396 kts | 284° |
| 2026-04-15 10:41 | 49.91116 | 7.45093 | 22228 ft | 394 kts | 284° |
| 2026-04-15 10:41 | 49.91750 | 7.40938 | 22226 ft | 394 kts | 284° |
| 2026-04-15 10:42 | 49.92382 | 7.36793 | 22237 ft | 395 kts | 284° |
| 2026-04-15 10:42 | 49.93010 | 7.32658 | 22237 ft | 394 kts | 284° |
| 2026-04-15 10:42 | 49.93638 | 7.28514 | 22235 ft | 394 kts | 284° |
| 2026-04-15 10:42 | 49.94263 | 7.24380 | 22240 ft | 392 kts | 284° |
| 2026-04-15 10:43 | 49.94886 | 7.20253 | 22239 ft | 394 kts | 284° |
| 2026-04-15 10:43 | 49.95509 | 7.16105 | 22238 ft | 394 kts | 284° |
| 2026-04-15 10:43 | 49.96129 | 7.11968 | 22238 ft | 394 kts | 284° |
| 2026-04-15 10:43 | 49.96751 | 7.07812 | 22235 ft | 395 kts | 283° |
| 2026-04-15 10:44 | 49.97369 | 7.03664 | 22232 ft | 393 kts | 284° |
| 2026-04-15 10:44 | 49.97986 | 6.99518 | 22229 ft | 394 kts | 283° |
| 2026-04-15 10:44 | 49.98611 | 6.95375 | 22223 ft | 393 kts | 286° |
| 2026-04-15 10:44 | 49.99522 | 6.91373 | 22225 ft | 393 kts | 295° |
| 2026-04-15 10:45 | 50.00835 | 6.87634 | 22226 ft | 393 kts | 303° |
| 2026-04-15 10:45 | 50.02448 | 6.84290 | 22229 ft | 392 kts | 308° |
| 2026-04-15 10:45 | 50.04137 | 6.80981 | 22228 ft | 389 kts | 308° |
| 2026-04-15 10:45 | 50.05819 | 6.77656 | 22229 ft | 392 kts | 308° |
| 2026-04-15 10:46 | 50.07496 | 6.74329 | 22228 ft | 390 kts | 308° |
| 2026-04-15 10:46 | 50.09167 | 6.71010 | 22227 ft | 390 kts | 308° |
| 2026-04-15 10:46 | 50.10842 | 6.67681 | 22224 ft | 390 kts | 308° |
| 2026-04-15 10:46 | 50.12514 | 6.64356 | 22221 ft | 390 kts | 308° |
| 2026-04-15 10:47 | 50.14189 | 6.61019 | 22219 ft | 392 kts | 308° |
| 2026-04-15 10:47 | 50.15868 | 6.57673 | 22217 ft | 389 kts | 308° |
| 2026-04-15 10:47 | 50.17532 | 6.54351 | 22200 ft | 388 kts | 308° |
| 2026-04-15 10:47 | 50.19199 | 6.51019 | 22201 ft | 389 kts | 308° |
| 2026-04-15 10:48 | 50.20865 | 6.47685 | 22200 ft | 391 kts | 308° |
| 2026-04-15 10:48 | 50.22541 | 6.44323 | 22200 ft | 394 kts | 308° |
| 2026-04-15 10:48 | 50.24227 | 6.40948 | 22209 ft | 394 kts | 307° |
| 2026-04-15 10:48 | 50.25907 | 6.37577 | 22202 ft | 391 kts | 307° |
| 2026-04-15 10:49 | 50.27582 | 6.34210 | 22204 ft | 394 kts | 307° |
| 2026-04-15 10:49 | 50.29262 | 6.30824 | 22201 ft | 393 kts | 307° |
| 2026-04-15 10:49 | 50.30929 | 6.27465 | 22202 ft | 388 kts | 307° |
| 2026-04-15 10:49 | 50.32570 | 6.24151 | 22209 ft | 392 kts | 307° |
| 2026-04-15 10:50 | 50.34234 | 6.20784 | 22208 ft | 390 kts | 307° |
| 2026-04-15 10:50 | 50.35894 | 6.17426 | 22209 ft | 389 kts | 307° |
| 2026-04-15 10:50 | 50.37571 | 6.14023 | 22209 ft | 402 kts | 307° |
| 2026-04-15 10:50 | 50.39315 | 6.10482 | 22210 ft | 419 kts | 307° |
| 2026-04-15 10:51 | 50.41128 | 6.06797 | 22201 ft | 434 kts | 307° |
| 2026-04-15 10:51 | 50.43005 | 6.02976 | 22201 ft | 449 kts | 307° |
| 2026-04-15 10:51 | 50.44938 | 5.99040 | 22200 ft | 460 kts | 306° |
| 2026-04-15 10:51 | 50.46894 | 5.95049 | 22200 ft | 462 kts | 306° |
| 2026-04-15 10:52 | 50.48853 | 5.91047 | 22195 ft | 462 kts | 306° |
| 2026-04-15 10:52 | 50.50807 | 5.87046 | 22200 ft | 463 kts | 306° |
| 2026-04-15 10:52 | 50.52767 | 5.83026 | 22195 ft | 463 kts | 306° |
| 2026-04-15 10:52 | 50.54722 | 5.79010 | 22195 ft | 463 kts | 306° |
| 2026-04-15 10:53 | 50.56688 | 5.75009 | 22199 ft | 463 kts | 308° |
| 2026-04-15 10:53 | 50.58878 | 5.71283 | 22202 ft | 464 kts | 315° |
| 2026-04-15 10:53 | 50.61298 | 5.67997 | 22200 ft | 465 kts | 321° |
| 2026-04-15 10:53 | 50.63917 | 5.65000 | 22202 ft | 466 kts | 323° |
| 2026-04-15 10:54 | 50.66540 | 5.62004 | 22209 ft | 466 kts | 322° |
| 2026-04-15 10:54 | 50.69159 | 5.58998 | 22210 ft | 464 kts | 322° |
| 2026-04-15 10:54 | 50.71772 | 5.55997 | 22123 ft | 465 kts | 322° |
| 2026-04-15 10:54 | 50.74384 | 5.52994 | 21762 ft | 462 kts | 322° |
| 2026-04-15 10:55 | 50.76969 | 5.50024 | 21247 ft | 456 kts | 322° |
| 2026-04-15 10:55 | 50.79431 | 5.46911 | 20491 ft | 451 kts | 316° |
| 2026-04-15 10:55 | 50.81629 | 5.43420 | 19702 ft | 445 kts | 312° |
| 2026-04-15 10:55 | 50.83763 | 5.39920 | 19058 ft | 439 kts | 313° |
| 2026-04-15 10:56 | 50.85879 | 5.36466 | 18458 ft | 436 kts | 313° |
| 2026-04-15 10:56 | 50.87983 | 5.33026 | 17812 ft | 434 kts | 313° |
| 2026-04-15 10:56 | 50.90078 | 5.29592 | 17211 ft | 432 kts | 313° |
| 2026-04-15 10:56 | 50.92165 | 5.26166 | 16603 ft | 428 kts | 312° |
| 2026-04-15 10:57 | 50.94225 | 5.22780 | 16013 ft | 425 kts | 312° |
| 2026-04-15 10:57 | 50.98286 | 5.16083 | 14839 ft | 417 kts | 311° |
| 2026-04-15 10:57 | 51.00264 | 5.12813 | 14263 ft | 415 kts | 312° |
| 2026-04-15 10:58 | 51.02257 | 5.09518 | 13775 ft | 409 kts | 312° |
| 2026-04-15 10:58 | 51.04051 | 5.06146 | 13568 ft | 391 kts | 302° |
| 2026-04-15 10:58 | 51.05281 | 5.02425 | 13368 ft | 372 kts | 290° |
| 2026-04-15 10:58 | 51.05973 | 4.98557 | 12970 ft | 360 kts | 280° |
| 2026-04-15 10:59 | 51.06492 | 4.94688 | 12416 ft | 356 kts | 280° |
| 2026-04-15 10:59 | 51.07005 | 4.90841 | 11737 ft | 356 kts | 280° |
| 2026-04-15 10:59 | 51.07516 | 4.87012 | 11029 ft | 351 kts | 280° |
| 2026-04-15 10:59 | 51.08024 | 4.83230 | 10374 ft | 343 kts | 280° |
| 2026-04-15 11:00 | 51.08509 | 4.79620 | 10164 ft | 323 kts | 280° |
| 2026-04-15 11:00 | 51.08963 | 4.76236 | 9973 ft | 304 kts | 280° |
| 2026-04-15 11:00 | 51.09389 | 4.73038 | 9720 ft | 289 kts | 279° |
| 2026-04-15 11:00 | 51.09798 | 4.69979 | 9405 ft | 275 kts | 279° |
| 2026-04-15 11:01 | 51.10183 | 4.67069 | 9179 ft | 267 kts | 279° |
| 2026-04-15 11:01 | 51.10565 | 4.64161 | 8822 ft | 269 kts | 279° |
| 2026-04-15 11:01 | 51.10946 | 4.61250 | 8474 ft | 268 kts | 279° |
| 2026-04-15 11:01 | 51.11324 | 4.58356 | 8120 ft | 266 kts | 278° |
| 2026-04-15 11:02 | 51.11700 | 4.55476 | 7774 ft | 265 kts | 278° |
| 2026-04-15 11:02 | 51.12071 | 4.52648 | 7430 ft | 264 kts | 278° |
| 2026-04-15 11:02 | 51.12443 | 4.49788 | 7081 ft | 263 kts | 279° |
| 2026-04-15 11:02 | 51.12815 | 4.46943 | 6743 ft | 262 kts | 279° |
| 2026-04-15 11:03 | 51.13189 | 4.44107 | 6333 ft | 262 kts | 279° |
| 2026-04-15 11:03 | 51.13562 | 4.41241 | 5919 ft | 263 kts | 279° |
| 2026-04-15 11:03 | 51.13926 | 4.38452 | 5805 ft | 252 kts | 278° |
| 2026-04-15 11:03 | 51.14274 | 4.35782 | 5686 ft | 240 kts | 278° |
| 2026-04-15 11:04 | 51.14604 | 4.33229 | 5451 ft | 232 kts | 278° |
| 2026-04-15 11:04 | 51.14920 | 4.30772 | 5336 ft | 221 kts | 278° |
| 2026-04-15 11:04 | 51.15227 | 4.28399 | 5114 ft | 217 kts | 277° |
| 2026-04-15 11:04 | 51.15530 | 4.26054 | 4855 ft | 215 kts | 277° |
| 2026-04-15 11:05 | 51.15825 | 4.23732 | 4598 ft | 213 kts | 277° |
| 2026-04-15 11:05 | 51.16121 | 4.21423 | 4333 ft | 212 kts | 276° |
| 2026-04-15 11:05 | 51.16411 | 4.19156 | 4057 ft | 205 kts | 276° |
| 2026-04-15 11:05 | 51.16850 | 4.17093 | 3891 ft | 194 kts | 288° |
| 2026-04-15 11:06 | 51.17393 | 4.15175 | 3646 ft | 187 kts | 287° |
| 2026-04-15 11:06 | 51.17911 | 4.13312 | 3387 ft | 181 kts | 287° |
| 2026-04-15 11:06 | 51.18413 | 4.11508 | 3122 ft | 179 kts | 291° |
| 2026-04-15 11:06 | 51.19326 | 4.10089 | 3053 ft | 191 kts | 332° |
| 2026-04-15 11:07 | 51.20639 | 4.09892 | 3000 ft | 196 kts | 15° |
| 2026-04-15 11:07 | 51.21828 | 4.10953 | 2991 ft | 196 kts | 44° |
| 2026-04-15 11:07 | 51.22784 | 4.12483 | 2987 ft | 194 kts | 51° |
| 2026-04-15 11:07 | 51.23701 | 4.14043 | 2979 ft | 193 kts | 49° |
| 2026-04-15 11:08 | 51.24659 | 4.15563 | 2994 ft | 197 kts | 47° |
| 2026-04-15 11:08 | 51.25323 | 4.17334 | 2987 ft | 183 kts | 86° |
| 2026-04-15 11:08 | 51.25168 | 4.19257 | 3009 ft | 173 kts | 116° |
| 2026-04-15 11:08 | 51.24747 | 4.21060 | 2995 ft | 173 kts | 118° |
| 2026-04-15 11:09 | 51.24311 | 4.22873 | 2993 ft | 174 kts | 117° |
| 2026-04-15 11:09 | 51.23872 | 4.24686 | 2998 ft | 175 kts | 117° |
| 2026-04-15 11:09 | 51.23447 | 4.26502 | 2999 ft | 175 kts | 117° |
| 2026-04-15 11:09 | 51.23021 | 4.28351 | 2978 ft | 176 kts | 116° |
| 2026-04-15 11:10 | 51.22623 | 4.30185 | 2763 ft | 174 kts | 116° |
| 2026-04-15 11:10 | 51.22231 | 4.31960 | 2488 ft | 164 kts | 116° |
| 2026-04-15 11:10 | 51.21868 | 4.33627 | 2268 ft | 155 kts | 117° |
| 2026-04-15 11:10 | 51.21510 | 4.35232 | 1998 ft | 154 kts | 116° |
| 2026-04-15 11:11 | 51.21139 | 4.36857 | 1631 ft | 158 kts | 117° |
| 2026-04-15 11:11 | 51.20750 | 4.38518 | 1182 ft | 159 kts | 116° |
| 2026-04-15 11:11 | 51.20394 | 4.40124 | 952 ft | 151 kts | 115° |
| 2026-04-15 11:11 | 51.20041 | 4.41733 | 687 ft | 157 kts | 117° |
| 2026-04-15 11:12 | 51.19670 | 4.43362 | 399 ft | 155 kts | 114° |
| 2026-04-15 11:12 | 51.19319 | 4.44978 | 168 ft | 152 kts | 116° |
| 2026-04-15 11:12 | 51.18955 | 4.46499 | 44 ft | 136 kts | 113° |
| 2026-04-15 11:12 | 51.18782 | 4.47252 | 41 ft | 2 kts | 109° |
| 2026-04-15 11:13 | 51.18783 | 4.47250 | 41 ft | 2 kts | 109° |
| 2026-04-15 11:13 | 51.18798 | 4.47206 | 41 ft | 1 kts | 134° |
| 2026-04-15 11:13 | 51.18751 | 4.47220 | 40 ft | 11 kts | 197° |
| 2026-04-15 11:13 | 51.18691 | 4.47112 | 38 ft | 14 kts | 232° |
| 2026-04-15 11:14 | 51.18628 | 4.46978 | 38 ft | 16 kts | 237° |
| 2026-04-15 11:14 | 51.18582 | 4.46815 | 36 ft | 17 kts | 257° |
| 2026-04-15 11:14 | 51.18581 | 4.46625 | 38 ft | 18 kts | 281° |
| 2026-04-15 11:14 | 51.18612 | 4.46423 | 38 ft | 19 kts | 284° |
| 2026-04-15 11:15 | 51.18645 | 4.46206 | 38 ft | 21 kts | 284° |
| 2026-04-15 11:15 | 51.18684 | 4.45980 | 38 ft | 22 kts | 284° |
| 2026-04-15 11:15 | 51.18722 | 4.45735 | 38 ft | 23 kts | 284° |
| 2026-04-15 11:15 | 51.18759 | 4.45518 | 36 ft | 0 kts | 303° |
| 2026-04-15 11:16 | 51.18766 | 4.45506 | 36 ft | 3 kts | 313° |
| 2026-04-15 11:16 | 51.18793 | 4.45478 | 38 ft | 6 kts | 334° |
| 2026-04-15 11:16 | 51.18823 | 4.45430 | 38 ft | 7 kts | 307° |
| 2026-04-15 11:16 | 51.18867 | 4.45380 | 38 ft | 8 kts | 326° |
| 2026-04-15 11:17 | 51.18875 | 4.45292 | 38 ft | 9 kts | 261° |
| 2026-04-15 11:17 | 51.18851 | 4.45242 | 38 ft | 9 kts | 195° |
| 2026-04-15 11:17 | 51.18824 | 4.45283 | 38 ft | 0 kts | 91° |